createdAt,value
2022-09-22T06:14:28.149Z,102067.66
2022-09-22T06:17:05.375Z,102074.50
2022-09-22T06:19:43.530Z,102074.31
2022-09-22T06:22:21.505Z,102071.44
2022-09-22T06:24:58.467Z,102070.34
2022-09-22T06:27:35.517Z,102067.50
2022-09-22T06:30:16.914Z,102071.00
2022-09-22T06:32:58.644Z,102073.31
2022-09-22T06:35:38.152Z,102078.53
2022-09-22T06:38:18.239Z,102081.94
2022-09-22T06:40:54.899Z,102081.00
2022-09-22T06:43:38.136Z,102090.50
2022-09-22T06:46:18.971Z,102088.59
2022-09-22T06:48:57.873Z,102073.03
2022-09-22T06:51:39.243Z,102072.34
2022-09-22T06:54:16.245Z,102085.41
2022-09-22T06:56:53.055Z,102083.56
2022-09-22T06:59:30.184Z,102085.41
2022-09-22T07:02:10.939Z,102082.44
2022-09-22T07:04:48.611Z,102081.75
2022-09-22T07:07:25.760Z,102089.66
2022-09-22T07:10:02.994Z,102092.25
2022-09-22T07:12:40.015Z,102092.06
2022-09-22T07:15:17.350Z,102091.09
2022-09-22T07:17:58.679Z,102094.50
2022-09-22T07:20:36.211Z,102093.56
2022-09-22T07:23:16.790Z,102081.78
2022-09-22T07:26:01.149Z,102086.16
2022-09-22T07:28:39.789Z,102094.75
2022-09-22T07:31:18.777Z,102089.22
2022-09-22T07:34:00.587Z,102095.22
2022-09-22T07:36:40.386Z,102088.84
2022-09-22T07:39:18.793Z,102087.69
2022-09-22T07:41:55.858Z,102090.94
2022-09-22T07:44:45.318Z,102078.94
2022-09-22T07:47:42.334Z,102084.94
2022-09-22T07:50:23.498Z,102084.38
2022-09-22T07:53:07.745Z,102084.84
2022-09-22T07:55:46.114Z,102087.13
2022-09-22T07:58:24.186Z,102073.63
2022-09-22T08:01:02.459Z,102073.88
2022-09-22T08:03:40.721Z,102081.16
2022-09-22T08:06:24.254Z,102092.09
2022-09-22T08:09:05.502Z,102090.03
2022-09-22T08:11:49.839Z,102082.78
2022-09-22T08:14:28.124Z,102077.25
2022-09-22T08:17:10.938Z,102073.22
2022-09-22T08:19:48.825Z,102075.59
2022-09-22T08:22:29.237Z,102081.47
2022-09-22T08:25:07.997Z,102083.22
2022-09-22T08:27:45.573Z,102079.47
2022-09-22T08:30:25.705Z,102082.16
2022-09-22T08:33:03.836Z,102084.72
2022-09-22T08:35:42.577Z,102072.88
2022-09-22T08:38:24.919Z,102079.94
2022-09-22T08:41:22.384Z,102084.19
2022-09-22T08:44:04.637Z,102094.00
2022-09-22T08:46:44.549Z,102095.19
2022-09-22T08:49:41.348Z,102096.34
2022-09-22T08:52:31.418Z,102087.50
2022-09-22T08:55:21.371Z,102090.03
2022-09-22T08:58:09.507Z,102092.59
2022-09-22T09:00:54.224Z,102096.13
2022-09-22T09:03:40.816Z,102097.09
2022-09-22T09:06:23.345Z,102097.09
2022-09-22T09:09:30.242Z,102097.84
2022-09-22T09:12:25.683Z,102095.38
2022-09-22T09:15:32.475Z,102096.13
2022-09-22T09:18:18.958Z,102099.78
2022-09-22T09:20:56.808Z,102100.59
2022-09-22T09:26:44.595Z,102097.03
2022-09-22T09:29:27.923Z,102089.34
2022-09-22T09:32:10.776Z,102091.75
2022-09-22T09:34:55.099Z,102087.72
2022-09-22T09:37:34.413Z,102097.78
2022-09-22T09:40:18.658Z,102096.41
2022-09-22T09:43:03.773Z,102080.69
2022-09-22T09:45:58.575Z,102083.69
2022-09-22T09:48:46.655Z,102091.94
2022-09-22T09:51:23.631Z,102080.28
2022-09-22T09:54:05.843Z,102079.22
2022-09-22T09:57:11.783Z,102067.44
2022-09-22T10:00:03.364Z,102070.31
2022-09-22T10:03:07.114Z,102073.56
2022-09-22T10:05:45.226Z,102070.34
2022-09-22T10:08:24.801Z,102062.63
2022-09-22T10:11:03.211Z,102068.72
2022-09-22T10:13:41.160Z,102066.03
2022-09-22T10:16:28.768Z,102066.25
2022-09-22T10:19:35.630Z,102075.44
2022-09-22T10:22:29.042Z,102070.09
2022-09-22T10:25:08.173Z,102072.63
2022-09-22T10:27:49.194Z,102081.41
2022-09-22T10:30:27.578Z,102077.13
2022-09-22T10:33:20.797Z,102076.72
2022-09-22T10:36:12.288Z,102078.66
2022-09-22T10:38:50.590Z,102068.91
2022-09-22T10:41:35.767Z,102067.31
2022-09-22T10:44:39.393Z,102064.22
2022-09-22T10:47:37.959Z,102046.75
2022-09-22T10:50:40.448Z,102051.19
2022-09-22T10:53:42.065Z,102056.03
2022-09-22T10:56:30.016Z,102054.66
2022-09-22T10:59:35.557Z,102056.63
2022-09-22T11:02:40.703Z,102060.81
2022-09-22T11:05:58.415Z,102063.03
2022-09-22T11:09:05.278Z,102061.97
2022-09-22T11:12:05.184Z,102057.06
2022-09-22T11:15:07.406Z,102051.88
2022-09-22T11:18:15.042Z,102040.25
2022-09-22T11:21:02.326Z,102047.91
2022-09-22T11:24:18.615Z,102043.91
2022-09-22T11:26:59.286Z,102044.03
2022-09-22T11:30:11.693Z,102044.97
2022-09-22T11:33:37.598Z,102042.13
2022-09-22T11:36:31.426Z,102044.72
2022-09-22T11:39:27.027Z,102043.31
2022-09-22T11:42:21.325Z,102039.72
2022-09-22T11:45:09.796Z,102046.28
2022-09-22T11:48:06.096Z,102044.31
2022-09-22T11:50:55.595Z,102040.19
2022-09-22T11:54:25.835Z,102037.03
2022-09-22T11:57:11.080Z,102038.34
2022-09-22T11:59:55.027Z,102030.81
2022-09-22T12:02:39.032Z,102035.06
2022-09-22T12:05:27.133Z,102033.16
2022-09-22T12:08:10.833Z,102019.28
2022-09-22T12:10:50.627Z,102020.25
2022-09-22T12:13:31.317Z,102014.16
2022-09-22T12:16:18.850Z,102019.28
2022-09-22T12:19:03.626Z,102024.16
2022-09-22T12:21:54.022Z,102013.22
2022-09-22T12:24:31.549Z,102012.75
2022-09-22T12:27:24.610Z,102014.22
2022-09-22T12:30:07.791Z,102014.69
2022-09-22T12:32:47.316Z,102012.41
2022-09-22T12:35:34.504Z,102002.25
2022-09-22T12:38:16.444Z,102003.97
2022-09-22T12:40:58.669Z,101999.75
2022-09-22T12:43:40.926Z,102007.69
2022-09-22T12:46:32.196Z,102004.75
2022-09-22T12:49:12.476Z,102004.03
2022-09-22T12:51:51.705Z,102013.06
2022-09-22T12:54:47.200Z,102004.28
2022-09-22T12:57:34.671Z,102008.94
2022-09-22T13:00:37.879Z,102012.41
2022-09-22T13:03:53.538Z,102016.19
2022-09-22T13:07:04.206Z,102014.63
2022-09-22T13:09:41.698Z,102008.06
2022-09-22T13:12:33.167Z,102014.28
2022-09-22T13:15:32.356Z,102007.69
2022-09-22T13:18:30.531Z,101999.78
2022-09-22T13:21:26.006Z,102001.22
2022-09-22T13:24:08.792Z,102006.50
2022-09-22T13:26:46.631Z,101996.53
2022-09-22T13:29:25.319Z,101998.28
2022-09-22T13:32:21.986Z,101993.66
2022-09-22T13:34:58.836Z,101998.81
2022-09-22T13:37:36.710Z,101991.34
2022-09-22T13:40:14.679Z,101985.94
2022-09-22T13:42:52.137Z,101989.19
2022-09-22T13:45:30.953Z,101984.09
2022-09-22T13:48:16.553Z,101984.81
2022-09-22T13:50:59.469Z,101979.63
2022-09-22T13:53:36.715Z,101986.94
2022-09-22T13:56:21.903Z,101978.22
2022-09-22T13:59:03.265Z,101972.59
2022-09-22T14:01:53.101Z,101974.78
2022-09-22T14:04:34.656Z,101976.63
2022-09-22T14:07:13.897Z,101986.28
2022-09-22T14:09:52.018Z,101980.91
2022-09-22T14:12:33.154Z,101984.75
2022-09-22T14:15:44.032Z,101982.91
2022-09-22T14:18:27.474Z,101982.28
2022-09-22T14:21:12.575Z,101977.81
2022-09-22T14:23:54.572Z,101980.94
2022-09-22T14:26:41.478Z,101980.19
2022-09-22T14:29:22.741Z,101978.50
2022-09-22T14:32:03.572Z,101979.66
2022-09-22T14:34:41.320Z,101985.81
2022-09-22T14:37:32.060Z,101970.50
2022-09-22T14:40:19.246Z,101978.56
2022-09-22T14:43:04.541Z,101980.53
2022-09-22T14:45:59.239Z,101973.72
2022-09-22T14:48:38.431Z,101970.81
2022-09-22T14:51:21.897Z,101972.84
2022-09-22T14:54:08.831Z,101970.63
2022-09-22T14:56:47.629Z,101977.00
2022-09-22T14:59:36.911Z,101976.72
2022-09-22T15:02:29.951Z,101970.00
2022-09-22T15:05:10.230Z,101971.84
2022-09-22T15:07:52.823Z,101966.72
2022-09-22T15:10:36.268Z,101973.31
2022-09-22T15:13:31.464Z,101968.59
2022-09-22T15:16:10.015Z,101971.63
2022-09-22T15:18:50.583Z,101969.97
2022-09-22T15:21:31.736Z,101961.91
2022-09-22T15:24:11.201Z,101965.81
2022-09-22T15:26:51.556Z,101970.22
2022-09-22T15:29:33.315Z,101972.66
2022-09-22T15:32:16.418Z,101967.78
2022-09-22T15:34:59.298Z,101971.69
2022-09-22T15:37:42.852Z,101972.41
2022-09-22T15:40:24.409Z,101969.25
2022-09-22T15:43:13.161Z,101977.47
2022-09-22T15:45:57.146Z,101979.19
2022-09-22T15:48:40.729Z,101979.53
2022-09-22T15:51:21.744Z,101974.13
2022-09-22T15:54:06.061Z,101979.09
2022-09-22T15:56:43.642Z,101976.97
2022-09-22T15:59:28.546Z,101974.75
2022-09-22T16:02:18.249Z,101985.94
2022-09-22T16:04:59.387Z,101982.38
2022-09-22T16:07:39.435Z,101977.47
2022-09-22T16:10:26.568Z,101974.75
2022-09-22T16:13:06.780Z,101977.13
2022-09-22T16:15:51.087Z,101973.13
